createdAt,value
2023-10-09T00:00:45.194Z,1.70
2023-10-09T00:01:47.915Z,1.60
2023-10-09T00:02:50.578Z,1.40
2023-10-09T00:03:55.100Z,1.70
2023-10-09T00:04:58.162Z,2.00
2023-10-09T00:06:01.757Z,3.03
2023-10-09T00:07:09.020Z,2.90
2023-10-09T00:08:17.464Z,2.60
2023-10-09T00:09:39.732Z,3.30
2023-10-09T00:10:54.912Z,2.88
2023-10-09T00:11:58.507Z,3.67
2023-10-09T00:13:00.954Z,3.20
2023-10-09T00:14:06.396Z,2.20
2023-10-09T00:15:13.225Z,2.42
2023-10-09T00:16:24.543Z,2.80
2023-10-09T00:17:32.408Z,3.13
2023-10-09T00:18:35.647Z,1.73
2023-10-09T00:19:38.294Z,2.05
2023-10-09T00:20:43.949Z,2.10
2023-10-09T00:21:47.311Z,2.15
2023-10-09T00:22:49.666Z,1.65
2023-10-09T00:24:00.423Z,2.28
2023-10-09T00:25:12.162Z,1.90
2023-10-09T00:26:17.786Z,1.83
2023-10-09T00:27:32.828Z,2.25
2023-10-09T00:28:36.695Z,1.90
2023-10-09T00:29:49.160Z,2.10
2023-10-09T00:30:54.078Z,1.83
2023-10-09T00:32:04.640Z,1.80
2023-10-09T00:33:09.097Z,2.17
2023-10-09T00:34:19.830Z,2.03
2023-10-09T00:35:37.975Z,1.70
2023-10-09T00:36:52.081Z,2.67
2023-10-09T00:38:01.745Z,2.55
2023-10-09T00:39:13.406Z,2.20
2023-10-09T00:40:23.112Z,2.25
2023-10-09T00:41:26.221Z,2.38
2023-10-09T00:42:34.268Z,2.25
2023-10-09T00:43:37.992Z,3.03
2023-10-09T00:44:43.771Z,2.60
2023-10-09T00:45:48.435Z,2.83
2023-10-09T00:46:51.099Z,3.00
2023-10-09T00:47:57.603Z,2.83
2023-10-09T00:49:03.923Z,2.58
2023-10-09T00:50:22.016Z,2.50
2023-10-09T00:51:25.607Z,2.40
2023-10-09T00:52:51.217Z,2.13
2023-10-09T00:53:58.649Z,3.42
2023-10-09T00:55:20.301Z,2.47
2023-10-09T00:56:27.064Z,2.75
2023-10-09T00:57:32.795Z,2.08
2023-10-09T00:58:37.187Z,2.55
2023-10-09T00:59:40.744Z,2.30
2023-10-09T01:00:47.381Z,2.40
2023-10-09T01:01:58.509Z,2.50
2023-10-09T01:03:21.830Z,2.22
2023-10-09T01:04:29.864Z,1.90
2023-10-09T01:05:32.847Z,2.60
2023-10-09T01:06:43.928Z,2.45
2023-10-09T01:07:49.569Z,1.90
2023-10-09T01:09:12.150Z,2.30
2023-10-09T01:10:17.634Z,2.42
2023-10-09T01:11:20.033Z,2.17
2023-10-09T01:12:22.807Z,2.80
2023-10-09T01:13:45.054Z,2.30
2023-10-09T01:14:53.965Z,1.77
2023-10-09T01:15:59.202Z,2.72
2023-10-09T01:17:02.580Z,2.42
2023-10-09T01:18:06.061Z,2.30
2023-10-09T01:19:14.199Z,2.30
2023-10-09T01:20:31.224Z,2.85
2023-10-09T01:21:33.667Z,2.72
2023-10-09T01:22:36.476Z,3.80
2023-10-09T01:23:44.251Z,3.25
2023-10-09T01:24:49.530Z,3.00
2023-10-09T01:25:52.439Z,3.20
2023-10-09T01:27:00.411Z,3.78
2023-10-09T01:28:03.614Z,3.03
2023-10-09T01:29:11.692Z,3.65
2023-10-09T01:30:15.365Z,3.08
2023-10-09T01:31:21.981Z,3.55
2023-10-09T01:32:27.969Z,2.90
2023-10-09T01:33:32.305Z,3.50
2023-10-09T01:34:51.394Z,3.80
2023-10-09T01:36:00.269Z,2.75
2023-10-09T01:37:06.413Z,2.85
2023-10-09T01:38:16.498Z,2.60
2023-10-09T01:39:28.836Z,2.60
2023-10-09T01:40:38.885Z,2.70
2023-10-09T01:41:47.977Z,3.33
2023-10-09T01:42:50.384Z,2.90
2023-10-09T01:43:58.052Z,3.08
2023-10-09T01:45:10.851Z,3.22
2023-10-09T01:46:17.332Z,5.32
2023-10-09T01:47:20.510Z,3.50
2023-10-09T01:48:25.749Z,2.83
2023-10-09T01:49:30.957Z,2.50
2023-10-09T01:50:36.690Z,3.35
2023-10-09T01:51:39.854Z,5.57
2023-10-09T01:52:43.888Z,2.90
2023-10-09T01:53:48.969Z,3.00
2023-10-09T01:54:54.618Z,3.67
2023-10-09T01:55:57.084Z,3.50
2023-10-09T01:57:01.163Z,3.65
2023-10-09T01:58:32.012Z,2.97
2023-10-09T01:59:37.228Z,3.15
2023-10-09T02:00:44.989Z,3.08
2023-10-09T02:01:49.133Z,3.00
2023-10-09T02:02:52.020Z,2.90
2023-10-09T02:03:55.770Z,5.03
2023-10-09T02:05:15.581Z,3.35
2023-10-09T02:06:27.492Z,4.03
2023-10-09T02:07:31.545Z,4.07
2023-10-09T02:08:37.289Z,4.05
2023-10-09T02:09:47.340Z,4.03
2023-10-09T02:10:49.899Z,4.75
2023-10-09T02:11:52.416Z,4.63
2023-10-09T02:13:00.417Z,4.20
2023-10-09T02:14:20.200Z,4.10
2023-10-09T02:15:46.055Z,4.03
2023-10-09T02:17:10.066Z,4.28
2023-10-09T02:18:19.772Z,3.45
2023-10-09T02:19:35.634Z,3.80
2023-10-09T02:20:39.194Z,5.40
2023-10-09T02:21:42.861Z,5.20
2023-10-09T02:22:45.297Z,3.90
2023-10-09T02:23:51.032Z,3.97
2023-10-09T02:25:00.246Z,4.75
2023-10-09T02:26:07.235Z,4.40
2023-10-09T02:27:12.792Z,4.20
2023-10-09T02:28:21.279Z,3.70
2023-10-09T02:29:25.447Z,6.35
2023-10-09T02:30:28.633Z,3.65
2023-10-09T02:31:37.884Z,3.50
2023-10-09T02:32:41.412Z,3.50
2023-10-09T02:33:45.670Z,3.40
2023-10-09T02:34:48.091Z,3.50
2023-10-09T02:35:52.703Z,3.72
2023-10-09T02:37:07.224Z,2.88
2023-10-09T02:38:15.684Z,3.08
2023-10-09T02:39:25.266Z,2.80
2023-10-09T02:40:33.222Z,3.50
2023-10-09T02:41:35.958Z,3.40
2023-10-09T02:42:43.858Z,3.28
2023-10-09T02:43:47.539Z,3.90
2023-10-09T02:44:53.399Z,3.20
2023-10-09T02:45:55.833Z,3.75
2023-10-09T02:47:00.067Z,3.40
2023-10-09T02:48:10.143Z,2.90
2023-10-09T02:49:17.023Z,3.70
2023-10-09T02:50:22.951Z,2.90
2023-10-09T02:51:28.888Z,3.10
2023-10-09T02:52:42.240Z,3.13
2023-10-09T02:53:44.859Z,4.28
2023-10-09T02:54:53.828Z,3.90
2023-10-09T02:56:18.314Z,3.50
2023-10-09T02:57:24.171Z,3.22
2023-10-09T02:58:26.643Z,3.92
2023-10-09T02:59:31.029Z,3.70
2023-10-09T03:00:37.291Z,3.90
2023-10-09T03:01:41.681Z,3.63
2023-10-09T03:02:44.060Z,3.22
2023-10-09T03:03:46.980Z,4.35
2023-10-09T03:04:49.450Z,3.38
2023-10-09T03:05:52.330Z,2.90
2023-10-09T03:06:58.492Z,3.15
2023-10-09T03:08:01.514Z,3.28
2023-10-09T03:09:17.534Z,2.95
2023-10-09T03:10:20.403Z,2.20
2023-10-09T03:11:22.800Z,2.60
2023-10-09T03:12:28.707Z,2.90
2023-10-09T03:13:34.316Z,2.60
2023-10-09T03:14:39.632Z,3.70
2023-10-09T03:15:43.998Z,2.92
2023-10-09T03:16:46.475Z,3.75
2023-10-09T03:17:49.477Z,3.45
2023-10-09T03:18:54.824Z,3.30
2023-10-09T03:19:57.229Z,2.78
2023-10-09T03:21:00.423Z,2.70
2023-10-09T03:22:03.080Z,3.00
2023-10-09T03:23:09.037Z,3.17
2023-10-09T03:24:13.025Z,4.45
2023-10-09T03:25:18.231Z,3.00
2023-10-09T03:26:22.492Z,3.28
2023-10-09T03:27:25.062Z,3.45
2023-10-09T03:28:27.535Z,3.15
2023-10-09T03:29:29.939Z,3.05
2023-10-09T03:30:33.897Z,3.30
2023-10-09T03:31:37.860Z,2.60
2023-10-09T03:32:40.276Z,2.83
2023-10-09T03:33:42.935Z,3.13
2023-10-09T03:34:45.429Z,2.53
2023-10-09T03:35:47.731Z,2.30
2023-10-09T03:36:52.465Z,3.42
2023-10-09T03:38:13.185Z,2.50
2023-10-09T03:39:34.585Z,2.53
2023-10-09T03:40:40.283Z,3.00
2023-10-09T03:41:43.297Z,2.95
2023-10-09T03:42:48.700Z,3.40
2023-10-09T03:43:52.138Z,3.50
2023-10-09T03:44:55.346Z,4.07
2023-10-09T03:45:58.749Z,4.75
2023-10-09T03:47:02.250Z,3.55
2023-10-09T03:48:16.017Z,2.97
2023-10-09T03:49:24.376Z,3.35
2023-10-09T03:50:37.072Z,2.78
2023-10-09T03:51:40.931Z,3.20
2023-10-09T03:52:43.322Z,4.07
2023-10-09T03:53:45.782Z,4.10
2023-10-09T03:54:48.210Z,3.72
2023-10-09T03:55:50.639Z,4.13
2023-10-09T03:56:55.940Z,3.72
2023-10-09T03:58:02.059Z,3.33
2023-10-09T03:59:05.870Z,4.20
2023-10-09T04:00:15.045Z,3.60
2023-10-09T04:01:29.798Z,3.75
2023-10-09T04:02:32.699Z,3.58
2023-10-09T04:03:38.213Z,3.30
2023-10-09T04:04:42.516Z,3.88
2023-10-09T04:05:45.241Z,3.67
2023-10-09T04:06:47.854Z,3.60
2023-10-09T04:07:50.509Z,4.38
2023-10-09T04:08:53.032Z,3.35
2023-10-09T04:10:15.394Z,4.22
2023-10-09T04:11:17.866Z,2.60
2023-10-09T04:12:26.886Z,2.90
2023-10-09T04:13:35.610Z,6.15
2023-10-09T04:14:48.695Z,3.38
2023-10-09T04:15:53.948Z,3.22
2023-10-09T04:17:28.446Z,3.50
2023-10-09T04:18:34.375Z,5.22
2023-10-09T04:19:49.397Z,2.92
2023-10-09T04:21:20.292Z,2.72
2023-10-09T04:22:32.314Z,2.30
2023-10-09T04:23:37.342Z,3.28
2023-10-09T04:24:45.902Z,3.85
2023-10-09T04:25:52.265Z,3.55
2023-10-09T04:26:57.690Z,3.88
2023-10-09T04:28:10.980Z,3.15
2023-10-09T04:29:19.713Z,3.25
2023-10-09T04:30:24.985Z,4.07
2023-10-09T04:31:33.396Z,3.95
2023-10-09T04:32:36.153Z,4.15
2023-10-09T04:33:44.236Z,2.97
2023-10-09T04:34:50.143Z,3.35
2023-10-09T04:36:12.574Z,3.92
2023-10-09T04:37:15.382Z,3.78
2023-10-09T04:38:17.973Z,3.50
2023-10-09T04:39:32.711Z,3.67
2023-10-09T04:40:47.634Z,4.05
2023-10-09T04:41:50.059Z,4.50
2023-10-09T04:43:07.034Z,2.83
2023-10-09T04:44:19.088Z,3.95
2023-10-09T04:45:41.526Z,3.10
2023-10-09T04:47:06.778Z,3.60
2023-10-09T04:48:10.473Z,3.47
2023-10-09T04:49:28.900Z,3.60
2023-10-09T04:50:31.234Z,3.92
2023-10-09T04:51:37.631Z,5.20
2023-10-09T04:52:40.102Z,3.65
2023-10-09T04:53:49.151Z,3.80
2023-10-09T04:55:23.922Z,5.22
2023-10-09T04:56:26.299Z,4.90
2023-10-09T04:57:29.005Z,6.18
2023-10-09T04:58:34.278Z,6.22
2023-10-09T04:59:47.601Z,5.07
2023-10-09T05:01:03.935Z,4.90
2023-10-09T05:02:08.070Z,8.35
2023-10-09T05:03:26.038Z,5.75
2023-10-09T05:04:40.185Z,5.25
2023-10-09T05:05:42.852Z,7.10
2023-10-09T05:06:56.528Z,4.50
2023-10-09T05:07:58.911Z,4.80
2023-10-09T05:09:09.502Z,4.80
2023-10-09T05:10:18.873Z,5.65
2023-10-09T05:11:35.975Z,5.70
2023-10-09T05:12:47.497Z,4.93
2023-10-09T05:13:59.183Z,5.38
2023-10-09T05:15:10.049Z,5.72
2023-10-09T05:16:19.991Z,4.65
2023-10-09T05:17:26.951Z,4.82
2023-10-09T05:18:37.653Z,5.10
2023-10-09T05:19:43.366Z,5.20
2023-10-09T05:21:07.227Z,4.88
2023-10-09T05:22:30.773Z,4.90
2023-10-09T05:23:45.587Z,4.93
2023-10-09T05:24:48.647Z,4.28
2023-10-09T05:26:00.083Z,6.22
2023-10-09T05:27:25.716Z,5.05
2023-10-09T05:28:49.870Z,4.55
2023-10-09T05:30:14.088Z,4.40
2023-10-09T05:31:37.128Z,4.68
2023-10-09T05:32:49.683Z,5.00
2023-10-09T05:33:54.506Z,6.10
2023-10-09T05:34:59.847Z,5.78
2023-10-09T05:36:33.227Z,5.68
2023-10-09T05:37:36.493Z,7.55
2023-10-09T05:38:47.436Z,6.70
2023-10-09T05:40:02.931Z,7.30
2023-10-09T05:41:28.349Z,5.50
2023-10-09T05:42:45.198Z,5.97
2023-10-09T05:44:06.471Z,5.78
2023-10-09T05:45:18.253Z,6.05
2023-10-09T05:46:36.588Z,7.10
2023-10-09T05:47:49.111Z,6.70
2023-10-09T05:48:55.939Z,5.90
2023-10-09T05:50:24.208Z,7.10
2023-10-09T05:51:45.659Z,6.07
2023-10-09T05:52:53.995Z,6.30
2023-10-09T05:54:13.528Z,6.00
2023-10-09T05:55:34.612Z,6.47
2023-10-09T05:56:55.676Z,6.47
2023-10-09T05:57:58.298Z,5.68
2023-10-09T05:59:12.994Z,7.07
2023-10-09T06:00:34.737Z,6.03
2023-10-09T06:01:55.942Z,5.88
2023-10-09T06:03:17.158Z,6.47
2023-10-09T06:04:21.153Z,7.05
2023-10-09T06:05:41.977Z,6.60
2023-10-09T06:06:47.720Z,5.90
2023-10-09T06:08:08.107Z,7.25
2023-10-09T06:09:24.834Z,7.28
2023-10-09T06:10:40.680Z,8.20
2023-10-09T06:11:50.996Z,7.80
2023-10-09T06:13:04.839Z,7.18
2023-10-09T06:14:10.387Z,8.13
2023-10-09T06:15:41.871Z,6.90
2023-10-09T06:16:44.275Z,6.85
2023-10-09T06:17:53.365Z,9.13
2023-10-09T06:19:09.357Z,7.70
2023-10-09T06:20:38.054Z,7.20
2023-10-09T06:21:43.749Z,8.13
2023-10-09T06:22:58.252Z,10.63
2023-10-09T06:24:16.648Z,7.75
2023-10-09T06:25:19.478Z,7.93
2023-10-09T06:26:25.473Z,8.52
2023-10-09T06:27:31.089Z,8.27
2023-10-09T06:28:36.345Z,8.32
2023-10-09T06:29:51.879Z,8.32
2023-10-09T06:30:54.315Z,10.15
2023-10-09T06:32:00.247Z,8.93
2023-10-09T06:33:21.123Z,8.30
2023-10-09T06:34:33.586Z,7.78
2023-10-09T06:35:37.395Z,9.10
2023-10-09T06:36:54.079Z,7.45
2023-10-09T06:38:02.918Z,8.05
2023-10-09T06:39:24.002Z,8.63
2023-10-09T06:40:38.266Z,8.07
2023-10-09T06:41:46.475Z,8.75
2023-10-09T06:42:52.591Z,8.27
2023-10-09T06:43:56.584Z,8.98
2023-10-09T06:45:15.782Z,7.28
2023-10-09T06:46:27.500Z,8.18
2023-10-09T06:47:42.196Z,7.60
2023-10-09T06:48:57.267Z,7.13
2023-10-09T06:50:21.161Z,9.95
2023-10-09T06:51:27.260Z,7.60
2023-10-09T06:52:49.975Z,6.32
2023-10-09T06:53:57.025Z,7.20
2023-10-09T06:55:10.276Z,7.10
2023-10-09T06:56:24.235Z,7.43
2023-10-09T06:57:45.100Z,6.75
2023-10-09T06:58:49.142Z,5.47
2023-10-09T07:00:26.756Z,8.30
2023-10-09T07:01:29.300Z,7.45
2023-10-09T07:02:47.205Z,6.18
2023-10-09T07:04:01.481Z,6.10
2023-10-09T07:05:14.098Z,6.30
2023-10-09T07:06:26.307Z,7.43
2023-10-09T07:07:29.086Z,5.45
2023-10-09T07:08:38.282Z,6.47
2023-10-09T07:09:43.606Z,6.00
2023-10-09T07:11:03.493Z,6.05
2023-10-09T07:12:11.099Z,6.03
2023-10-09T07:13:38.279Z,6.20
2023-10-09T07:14:40.756Z,6.80
2023-10-09T07:16:04.196Z,6.70
2023-10-09T07:17:23.186Z,4.88
2023-10-09T07:18:26.660Z,5.53
2023-10-09T07:19:42.902Z,5.18
2023-10-09T07:21:00.146Z,5.70
2023-10-09T07:22:06.046Z,4.75
2023-10-09T07:23:18.872Z,5.18
2023-10-09T07:24:26.182Z,5.40
2023-10-09T07:25:56.377Z,5.93
2023-10-09T07:27:07.263Z,5.40
2023-10-09T07:28:30.123Z,4.90
2023-10-09T07:29:48.697Z,5.30
2023-10-09T07:30:58.714Z,5.72
2023-10-09T07:32:13.656Z,5.18
2023-10-09T07:33:17.225Z,5.88
2023-10-09T07:34:32.105Z,5.13
2023-10-09T07:35:43.842Z,5.50
2023-10-09T07:36:49.470Z,5.30
2023-10-09T07:37:52.103Z,5.35
2023-10-09T07:38:56.461Z,4.70
2023-10-09T07:39:58.985Z,4.43
2023-10-09T07:41:07.206Z,5.40
2023-10-09T07:42:28.316Z,5.05
2023-10-09T07:43:53.509Z,4.30
2023-10-09T07:44:58.980Z,4.10
2023-10-09T07:46:06.614Z,4.35
2023-10-09T07:47:18.402Z,4.32
2023-10-09T07:48:26.994Z,3.90
2023-10-09T07:49:30.569Z,4.00
2023-10-09T07:50:49.936Z,4.63
2023-10-09T07:51:53.849Z,3.22
2023-10-09T07:53:16.052Z,3.97
2023-10-09T07:54:33.313Z,4.10
2023-10-09T07:55:40.749Z,4.78
2023-10-09T07:56:47.673Z,3.53
2023-10-09T07:57:53.443Z,4.03
2023-10-09T07:59:01.272Z,3.60
2023-10-09T08:00:13.248Z,3.40
2023-10-09T08:01:36.426Z,3.33
2023-10-09T08:02:40.282Z,4.40
2023-10-09T08:03:51.468Z,3.75
2023-10-09T08:04:54.591Z,4.40
2023-10-09T08:06:08.279Z,3.90
2023-10-09T08:08:06.631Z,4.00
2023-10-09T08:09:03.166Z,4.93
2023-10-09T08:10:15.513Z,3.95
2023-10-09T08:11:40.792Z,4.30
2023-10-09T08:12:50.346Z,4.05
2023-10-09T08:14:01.888Z,6.07
2023-10-09T08:15:21.031Z,4.60
2023-10-09T08:16:37.502Z,4.45
2023-10-09T08:17:40.198Z,3.80
2023-10-09T08:18:46.719Z,3.50
2023-10-09T08:20:12.649Z,3.70
2023-10-09T08:21:15.268Z,3.83
2023-10-09T08:22:26.329Z,4.40
2023-10-09T08:23:34.881Z,4.85
2023-10-09T08:24:42.828Z,5.50
2023-10-09T08:25:58.482Z,5.10
2023-10-09T08:27:29.506Z,5.47
2023-10-09T08:28:41.056Z,5.22
2023-10-09T08:29:48.815Z,5.03
2023-10-09T08:31:04.072Z,5.03
2023-10-09T08:34:18.468Z,4.75
2023-10-09T08:36:06.356Z,4.80
2023-10-09T08:37:13.987Z,5.00
2023-10-09T08:38:24.650Z,5.13
2023-10-09T08:39:27.880Z,4.70
2023-10-09T08:40:44.164Z,4.63
2023-10-09T08:41:47.234Z,4.25
2023-10-09T08:42:55.274Z,4.68
2023-10-09T08:43:58.821Z,5.03
2023-10-09T08:45:06.289Z,4.30
2023-10-09T08:46:08.794Z,4.10
2023-10-09T08:47:12.276Z,4.20
2023-10-09T08:48:19.080Z,4.65
2023-10-09T08:49:22.876Z,5.22
2023-10-09T08:50:29.889Z,4.05
2023-10-09T08:51:35.271Z,5.15
2023-10-09T08:52:38.933Z,4.60
2023-10-09T08:53:46.945Z,4.40
2023-10-09T08:54:49.416Z,4.88
2023-10-09T08:55:52.463Z,5.38
2023-10-09T08:56:57.427Z,5.60
2023-10-09T08:58:00.224Z,5.10
2023-10-09T08:59:03.613Z,4.70
2023-10-09T09:00:10.969Z,5.18
2023-10-09T09:01:18.822Z,4.70
2023-10-09T09:02:22.856Z,4.70
2023-10-09T09:03:25.711Z,4.45
2023-10-09T09:04:42.308Z,4.90
2023-10-09T09:05:48.641Z,5.28
2023-10-09T09:06:51.018Z,4.95
2023-10-09T09:07:57.419Z,4.72
2023-10-09T09:09:15.229Z,4.63
2023-10-09T09:10:25.045Z,6.28
2023-10-09T09:11:31.588Z,7.60
2023-10-09T09:12:39.101Z,6.88
2023-10-09T09:13:51.270Z,6.50
2023-10-09T09:14:53.989Z,5.60
2023-10-09T09:15:58.769Z,9.13
2023-10-09T09:17:04.940Z,7.13
2023-10-09T09:18:12.779Z,8.35
2023-10-09T09:19:19.425Z,8.15
2023-10-09T09:20:36.012Z,7.35
2023-10-09T09:21:42.035Z,7.43
2023-10-09T09:22:57.902Z,7.28
2023-10-09T09:24:16.376Z,8.40
2023-10-09T09:25:18.840Z,6.57
2023-10-09T09:26:38.606Z,7.32
2023-10-09T09:27:57.428Z,6.82
2023-10-09T09:29:01.349Z,6.70
2023-10-09T09:30:09.039Z,6.00
2023-10-09T09:31:15.200Z,6.75
2023-10-09T09:32:21.378Z,7.47
2023-10-09T09:33:41.931Z,7.07
2023-10-09T09:35:02.503Z,7.15
2023-10-09T09:36:06.314Z,6.32
2023-10-09T09:37:15.048Z,7.22
2023-10-09T09:38:18.960Z,6.82
2023-10-09T09:39:35.516Z,7.18
2023-10-09T09:40:44.379Z,6.35
2023-10-09T09:41:48.249Z,7.72
2023-10-09T09:42:51.825Z,8.30
2023-10-09T09:44:02.187Z,8.63
2023-10-09T09:45:05.605Z,8.50
2023-10-09T09:46:12.971Z,7.53
2023-10-09T09:47:25.387Z,8.77
2023-10-09T09:48:28.309Z,7.47
2023-10-09T09:49:33.022Z,7.45
2023-10-09T09:50:39.999Z,7.10
2023-10-09T09:51:44.228Z,7.55
2023-10-09T09:52:48.231Z,8.80
2023-10-09T09:53:52.464Z,7.70
2023-10-09T09:54:55.117Z,7.40
2023-10-09T09:56:00.357Z,7.53
2023-10-09T09:57:12.087Z,7.18
2023-10-09T09:58:21.567Z,9.50
2023-10-09T09:59:30.243Z,6.60
2023-10-09T10:00:42.001Z,7.35
2023-10-09T10:01:46.234Z,6.32
2023-10-09T10:02:49.135Z,8.63
2023-10-09T10:04:00.999Z,9.45
2023-10-09T10:05:12.645Z,8.70
2023-10-09T10:06:15.695Z,8.10
2023-10-09T10:07:22.483Z,10.10
2023-10-09T10:08:43.817Z,9.00
2023-10-09T10:09:46.895Z,8.35
2023-10-09T10:10:57.012Z,9.05
2023-10-09T10:12:05.565Z,7.97
2023-10-09T10:13:15.872Z,7.97
2023-10-09T10:14:44.035Z,8.70
2023-10-09T10:16:22.396Z,7.90
2023-10-09T10:17:25.132Z,8.88
2023-10-09T10:18:33.486Z,8.70
2023-10-09T10:20:01.820Z,7.75
2023-10-09T10:21:15.535Z,6.53
2023-10-09T10:22:29.134Z,8.00
2023-10-09T10:23:33.641Z,7.80
2023-10-09T10:24:52.741Z,7.85
2023-10-09T10:26:02.156Z,7.25
2023-10-09T10:27:25.391Z,7.72
2023-10-09T10:28:47.084Z,8.40
2023-10-09T10:30:12.390Z,8.70
2023-10-09T10:31:15.599Z,8.85
2023-10-09T10:32:19.521Z,8.55
2023-10-09T10:33:23.872Z,7.78
2023-10-09T10:34:26.755Z,7.50
2023-10-09T10:35:46.444Z,7.22
2023-10-09T10:36:53.564Z,7.13
2023-10-09T10:38:12.018Z,7.43
2023-10-09T10:39:17.375Z,6.28
2023-10-09T10:40:44.453Z,7.00
2023-10-09T10:42:06.075Z,5.65
2023-10-09T10:43:33.689Z,7.05
2023-10-09T10:44:39.827Z,6.40
2023-10-09T10:45:45.386Z,5.25
2023-10-09T10:46:53.625Z,6.25
2023-10-09T10:47:59.720Z,5.30
2023-10-09T10:49:22.585Z,7.78
2023-10-09T10:50:30.984Z,7.20
2023-10-09T10:51:38.736Z,6.90
2023-10-09T10:52:44.241Z,6.20
2023-10-09T10:53:56.003Z,6.65
2023-10-09T10:55:30.834Z,6.78
2023-10-09T10:56:39.131Z,7.65
2023-10-09T10:58:00.018Z,6.22
2023-10-09T10:59:05.714Z,6.68
2023-10-09T11:00:33.887Z,5.70
2023-10-09T11:03:14.950Z,7.43
2023-10-09T11:04:33.773Z,8.70
2023-10-09T11:05:41.001Z,9.90
2023-10-09T11:06:44.469Z,9.30
2023-10-09T11:07:47.025Z,8.88
2023-10-09T11:08:56.168Z,11.40
2023-10-09T11:10:05.720Z,12.00
2023-10-09T11:11:17.964Z,11.50
2023-10-09T11:12:24.172Z,11.02
2023-10-09T11:13:32.176Z,11.10
2023-10-09T11:14:46.231Z,11.73
2023-10-09T11:15:57.380Z,12.77
2023-10-09T11:17:00.046Z,10.60
2023-10-09T11:18:08.865Z,12.48
2023-10-09T11:19:28.610Z,11.52
2023-10-09T11:20:33.767Z,13.32
2023-10-09T11:21:41.963Z,11.88
2023-10-09T11:23:04.726Z,15.02
2023-10-09T11:24:30.210Z,14.32
2023-10-09T11:25:34.952Z,13.60
2023-10-09T11:26:41.718Z,15.85
2023-10-09T11:27:52.192Z,12.90
2023-10-09T11:29:45.419Z,13.55
2023-10-09T11:30:47.841Z,11.70
2023-10-09T11:32:07.174Z,11.90
2023-10-09T11:33:15.682Z,13.27
2023-10-09T11:34:30.345Z,12.85
2023-10-09T11:35:35.968Z,14.15
2023-10-09T11:36:39.875Z,12.55
2023-10-09T11:37:44.941Z,14.40
2023-10-09T11:38:50.526Z,11.85
2023-10-09T11:39:58.974Z,11.68
2023-10-09T11:41:20.126Z,15.45
2023-10-09T11:42:39.687Z,13.10
2023-10-09T11:43:53.069Z,15.77
2023-10-09T11:44:56.766Z,15.32
2023-10-09T11:46:12.142Z,14.07
2023-10-09T11:47:21.130Z,16.45
2023-10-09T11:48:34.608Z,16.30
2023-10-09T11:49:47.902Z,15.98
2023-10-09T11:50:56.516Z,16.00
2023-10-09T11:52:09.655Z,16.08
2023-10-09T11:53:24.644Z,14.73
2023-10-09T11:54:34.434Z,13.88
2023-10-09T11:55:37.756Z,14.63
2023-10-09T11:56:40.403Z,13.23
2023-10-09T11:57:43.201Z,13.10
2023-10-09T11:58:51.382Z,14.75
2023-10-09T11:59:54.150Z,12.77
2023-10-09T12:01:00.738Z,12.75
2023-10-09T12:02:05.669Z,12.77
2023-10-09T12:03:08.117Z,13.77
2023-10-09T12:04:10.712Z,13.65
2023-10-09T12:05:18.437Z,13.85
2023-10-09T12:06:25.145Z,13.70
2023-10-09T12:07:28.898Z,12.13
2023-10-09T12:08:35.191Z,11.48
2023-10-09T12:09:41.049Z,15.35
2023-10-09T12:10:43.808Z,14.35
2023-10-09T12:12:03.182Z,13.32
2023-10-09T12:13:08.701Z,13.07
2023-10-09T12:14:11.346Z,12.40
2023-10-09T12:15:18.997Z,14.43
2023-10-09T12:16:23.325Z,13.68
2023-10-09T12:17:27.506Z,11.82
2023-10-09T12:18:30.275Z,14.35
2023-10-09T12:19:37.226Z,13.13
2023-10-09T12:20:40.313Z,14.82
2023-10-09T12:21:44.259Z,13.60
2023-10-09T12:22:46.693Z,11.77
2023-10-09T12:23:49.084Z,10.80
2023-10-09T12:24:51.551Z,11.32
2023-10-09T12:25:57.801Z,10.93
2023-10-09T12:27:01.020Z,9.88
2023-10-09T12:28:04.376Z,10.80
2023-10-09T12:29:12.684Z,10.65
2023-10-09T12:30:15.443Z,10.35
2023-10-09T12:31:21.483Z,9.13
2023-10-09T12:32:24.014Z,11.85
2023-10-09T12:33:29.386Z,9.95
2023-10-09T12:34:32.692Z,9.73
2023-10-09T12:35:39.728Z,9.40
2023-10-09T12:36:44.941Z,8.60
2023-10-09T12:37:48.161Z,7.40
2023-10-09T12:38:53.981Z,10.38
2023-10-09T12:39:58.045Z,9.82
2023-10-09T12:41:40.000Z,8.20
2023-10-09T12:42:42.422Z,7.35
2023-10-09T12:43:44.879Z,8.32
2023-10-09T12:44:47.284Z,8.38
2023-10-09T12:45:49.771Z,8.88
2023-10-09T12:46:55.341Z,7.47
2023-10-09T12:48:00.574Z,8.43
2023-10-09T12:49:03.235Z,8.35
2023-10-09T12:50:11.502Z,9.38
2023-10-09T12:51:17.985Z,8.55
2023-10-09T12:52:21.022Z,7.40
2023-10-09T12:53:23.617Z,8.02
2023-10-09T12:54:29.434Z,7.40
2023-10-09T12:55:35.832Z,6.50
2023-10-09T12:56:39.171Z,6.88
2023-10-09T12:57:41.843Z,6.90
2023-10-09T12:58:54.053Z,6.60
2023-10-09T12:59:57.089Z,7.40
2023-10-09T13:01:10.634Z,6.95
2023-10-09T13:02:15.201Z,6.20
2023-10-09T13:03:18.756Z,5.68
2023-10-09T13:04:23.591Z,5.38
2023-10-09T13:05:28.765Z,5.30
2023-10-09T13:06:31.496Z,5.55
2023-10-09T13:07:34.564Z,5.22
2023-10-09T13:08:37.386Z,4.68
2023-10-09T13:09:53.180Z,4.68
2023-10-09T13:11:01.763Z,4.20
2023-10-09T13:12:04.556Z,4.90
2023-10-09T13:13:07.590Z,4.70
2023-10-09T13:14:18.292Z,5.00
2023-10-09T13:15:22.136Z,5.95
2023-10-09T13:16:24.827Z,5.15
2023-10-09T13:17:28.440Z,6.88
2023-10-09T13:18:31.061Z,5.60
2023-10-09T13:19:33.439Z,5.05
2023-10-09T13:20:37.321Z,5.57
2023-10-09T13:21:43.502Z,5.50
2023-10-09T13:22:49.161Z,7.50
2023-10-09T13:23:53.262Z,6.35
2023-10-09T13:25:04.821Z,5.93
2023-10-09T13:26:31.333Z,5.43
2023-10-09T13:27:36.160Z,5.32
2023-10-09T13:28:38.891Z,5.85
2023-10-09T13:29:41.665Z,6.97
2023-10-09T13:30:50.456Z,9.90
2023-10-09T13:31:59.200Z,10.23
2023-10-09T13:33:01.913Z,9.30
2023-10-09T13:34:07.797Z,8.30
2023-10-09T13:35:10.580Z,8.05
2023-10-09T13:36:32.312Z,8.80
2023-10-09T13:37:38.003Z,8.43
2023-10-09T13:38:44.417Z,9.00
2023-10-09T13:39:57.485Z,11.40
2023-10-09T13:41:05.457Z,9.57
2023-10-09T13:42:11.648Z,9.77
2023-10-09T13:43:18.156Z,10.23
2023-10-09T13:44:20.872Z,10.30
2023-10-09T13:45:28.198Z,9.15
2023-10-09T13:46:31.090Z,8.80
2023-10-09T13:47:34.532Z,8.35
2023-10-09T13:48:42.248Z,9.75
2023-10-09T13:49:45.438Z,16.73
2023-10-09T13:50:48.427Z,10.25
2023-10-09T13:51:51.520Z,10.15
2023-10-09T13:52:55.524Z,9.88
2023-10-09T13:53:58.014Z,11.57
2023-10-09T13:55:16.266Z,9.48
2023-10-09T13:56:20.089Z,9.00
2023-10-09T13:57:32.097Z,8.95
2023-10-09T13:58:35.742Z,9.18
2023-10-09T13:59:43.585Z,9.63
2023-10-09T14:00:47.599Z,12.27
2023-10-09T14:01:51.094Z,11.35
2023-10-09T14:02:53.590Z,10.52
2023-10-09T14:04:00.388Z,10.43
2023-10-09T14:05:02.983Z,12.23
2023-10-09T14:06:13.761Z,12.45
2023-10-09T14:07:21.696Z,11.95
2023-10-09T14:08:24.849Z,11.15
2023-10-09T14:09:46.352Z,9.43
2023-10-09T14:10:49.771Z,9.07
2023-10-09T14:11:53.557Z,10.35
2023-10-09T14:12:57.909Z,11.55
2023-10-09T14:14:11.443Z,12.00
2023-10-09T14:15:18.710Z,11.43
2023-10-09T14:16:33.918Z,9.93
2023-10-09T14:17:36.380Z,9.77
2023-10-09T14:18:38.711Z,9.27
2023-10-09T14:19:43.062Z,9.18
2023-10-09T14:20:45.428Z,8.82
2023-10-09T14:21:50.860Z,9.18
2023-10-09T14:22:54.150Z,9.30
2023-10-09T14:23:58.291Z,10.27
2023-10-09T14:25:00.722Z,8.52
2023-10-09T14:26:03.320Z,8.93
2023-10-09T14:27:07.668Z,7.93
2023-10-09T14:28:10.743Z,9.38
2023-10-09T14:29:18.164Z,9.05
2023-10-09T14:30:32.032Z,9.15
2023-10-09T14:31:40.128Z,8.57
2023-10-09T14:32:52.557Z,8.30
2023-10-09T14:33:58.164Z,7.15
2023-10-09T14:35:02.342Z,7.88
2023-10-09T14:36:07.318Z,8.07
2023-10-09T14:37:13.224Z,7.38
2023-10-09T14:38:16.570Z,7.28
2023-10-09T14:39:20.642Z,7.47
2023-10-09T14:40:30.852Z,7.90
2023-10-09T14:41:34.427Z,9.18
2023-10-09T14:42:37.590Z,11.00
2023-10-09T14:43:40.878Z,10.73
2023-10-09T14:44:46.441Z,10.10
2023-10-09T14:45:50.119Z,8.73
2023-10-09T14:46:52.681Z,9.82
2023-10-09T14:47:55.464Z,12.25
2023-10-09T14:48:58.047Z,9.88
2023-10-09T14:50:02.957Z,8.50
2023-10-09T14:51:08.452Z,9.48
2023-10-09T14:52:11.827Z,12.20
2023-10-09T14:53:16.516Z,9.45
2023-10-09T14:54:19.470Z,8.68
2023-10-09T14:55:32.954Z,8.30
2023-10-09T14:56:37.748Z,10.07
2023-10-09T14:57:40.183Z,9.50
2023-10-09T14:58:42.683Z,8.15
2023-10-09T14:59:45.187Z,9.38
2023-10-09T15:00:47.781Z,9.45
2023-10-09T15:01:51.645Z,11.00
2023-10-09T15:02:54.211Z,10.10
2023-10-09T15:03:58.816Z,11.00
2023-10-09T15:05:01.703Z,11.57
2023-10-09T15:06:04.823Z,10.70
2023-10-09T15:07:09.995Z,10.80
2023-10-09T15:08:12.744Z,10.88
2023-10-09T15:09:23.307Z,9.48
2023-10-09T15:10:28.010Z,11.65
2023-10-09T15:11:30.460Z,8.43
2023-10-09T15:12:32.831Z,9.38
2023-10-09T15:13:35.784Z,10.30
2023-10-09T15:14:38.504Z,9.50
2023-10-09T15:15:44.771Z,9.98
2023-10-09T15:16:48.446Z,10.82
2023-10-09T15:17:50.847Z,11.50